Terminal Aerodrome Forecast
Issued by NWS

Home | Current Version | Previous Version | Text Only | Print | Product List | Glossary On
Versions: 1 2 3 4 5 6 7 8 9 10 11 12 13 14 15 16 17 18 19 20 21 22 23
000
FTUS43 KGLD 232320
TAFMCK
TAF
KMCK 232320Z 2400/2424 18020G27KT P6SM BKN300
     FM240300 16012KT P6SM BKN300
     FM240400 16012KT P6SM BKN300 WS020/18045KT
     FM241100 15010KT P6SM SCT120 BKN250 WS020/21035KT
     FM241200 15009KT P6SM SCT120 BKN200
     FM241300 18010KT P6SM SCT150 BKN200
     FM241400 24011KT P6SM SCT150 SCT300
     FM241600 28014G21KT P6SM SCT150 SCT300
     FM241800 32015G23KT P6SM FEW060 SCT300
     FM242300 32009KT P6SM SCT070 SCT250=

USA.gov is the U.S. government's official web portal to all federal, state and local government web resources and services.